Time;durP1;ratioP1;P1;durP2;ratioP2;P2;SDS_P1;SDS_P2;PMS_P1;PMS_P2;Temp;Humidity;BMP_temperature;BMP_pressure;BME280_temperature;BME280_humidity;BME280_pressure;Samples;Min_cycle;Max_cycle;Signal;HPM_P1;HPM_P2
2022/07/06 00:01:40;;;;;;;3.67;1.93;;;;;;;;;;4970319;28;20188;-77
2022/07/06 00:04:06;;;;;;;2.13;2.03;;;;;;;;;;4985491;28;20180;-76
2022/07/06 00:06:33;;;;;;;2.77;2.57;;;;;;;;;;4970247;28;20192;-76
2022/07/06 00:08:59;;;;;;;2.30;2.10;;;;;;;;;;4969672;28;20192;-76
2022/07/06 00:11:24;;;;;;;3.17;2.30;;;;;;;;;;4977360;28;20203;-75
2022/07/06 00:13:49;;;;;;;2.97;2.33;;;;;;;;;;4967834;28;20184;-76
2022/07/06 00:16:15;;;;;;;2.60;2.37;;;;;;;;;;4969157;28;20210;-76
2022/07/06 00:18:40;;;;;;;3.07;2.23;;;;;;;;;;4970581;28;20224;-76
2022/07/06 00:21:05;;;;;;;2.50;1.90;;;;;;;;;;4968062;28;20199;-76
2022/07/06 00:23:30;;;;;;;3.93;2.27;;;;;;;;;;4999214;28;20190;-76
2022/07/06 00:25:56;;;;;;;2.90;2.60;;;;;;;;;;5002480;28;20176;-76
2022/07/06 00:28:22;;;;;;;2.67;2.47;;;;;;;;;;4971466;28;20210;-76
2022/07/06 00:30:48;;;;;;;2.07;1.97;;;;;;;;;;4989073;28;20209;-76
2022/07/06 00:33:13;;;;;;;2.53;2.30;;;;;;;;;;4970920;28;20194;-76
2022/07/06 00:35:38;;;;;;;3.43;2.40;;;;;;;;;;4969024;28;20230;-76
2022/07/06 00:38:03;;;;;;;3.43;2.27;;;;;;;;;;4976579;28;20208;-75
2022/07/06 00:40:29;;;;;;;3.00;2.10;;;;;;;;;;4971639;28;20255;-76
2022/07/06 00:42:55;;;;;;;4.07;2.30;;;;;;;;;;4969941;28;20192;-76
2022/07/06 00:45:20;;;;;;;2.87;2.10;;;;;;;;;;4971227;28;20203;-75
2022/07/06 00:47:46;;;;;;;2.80;2.50;;;;;;;;;;5001866;28;20255;-76
2022/07/06 00:50:17;;;;;;;2.30;2.10;;;;;;;;;;4971579;28;20193;-75
2022/07/06 00:53:03;;;;;;;2.53;2.33;;;;;;;;;;4969424;28;20182;-75
2022/07/06 00:55:29;;;;;;;2.90;2.57;;;;;;;;;;4984296;28;20202;-76
2022/07/06 00:57:55;;;;;;;2.13;2.03;;;;;;;;;;4969413;28;20231;-76
2022/07/06 01:00:21;;;;;;;3.53;2.90;;;;;;;;;;4970760;28;20183;-75
2022/07/06 01:02:47;;;;;;;3.80;2.40;;;;;;;;;;4970279;28;20191;-76
2022/07/06 01:05:13;;;;;;;3.03;2.40;;;;;;;;;;4969388;28;20186;-77
2022/07/06 01:07:39;;;;;;;2.27;2.17;;;;;;;;;;4969987;28;20183;-76
2022/07/06 01:10:05;;;;;;;2.17;2.07;;;;;;;;;;4970922;28;20214;-76
2022/07/06 01:12:31;;;;;;;2.60;2.40;;;;;;;;;;4971296;28;20220;-76
2022/07/06 01:14:56;;;;;;;2.47;2.20;;;;;;;;;;4967004;28;20183;-76
2022/07/06 01:17:21;;;;;;;2.80;2.43;;;;;;;;;;4969628;28;20241;-75
2022/07/06 01:19:47;;;;;;;3.30;2.80;;;;;;;;;;4968666;28;20270;-76
2022/07/06 01:22:12;;;;;;;3.23;2.90;;;;;;;;;;4968089;28;20193;-75
2022/07/06 01:24:37;;;;;;;2.80;2.50;;;;;;;;;;4970117;28;20245;-75
2022/07/06 01:27:07;;;;;;;2.70;2.40;;;;;;;;;;4967266;28;20195;-75
2022/07/06 01:29:32;;;;;;;4.80;2.80;;;;;;;;;;4975106;28;20186;-76
2022/07/06 01:31:57;;;;;;;2.77;2.57;;;;;;;;;;4969768;28;20204;-76
2022/07/06 01:34:23;;;;;;;3.33;2.80;;;;;;;;;;4970282;28;20186;-76
2022/07/06 01:36:48;;;;;;;3.00;2.60;;;;;;;;;;4969584;28;20223;-75
2022/07/06 01:39:13;;;;;;;5.30;3.10;;;;;;;;;;4969520;28;20229;-76
2022/07/06 01:41:39;;;;;;;5.33;3.20;;;;;;;;;;4966607;28;20183;-75
2022/07/06 01:44:05;;;;;;;4.47;2.80;;;;;;;;;;4964915;28;20295;-76
2022/07/06 01:46:32;;;;;;;4.50;3.10;;;;;;;;;;4970631;28;20263;-75
2022/07/06 01:48:58;;;;;;;6.40;3.07;;;;;;;;;;5001591;28;20227;-76
2022/07/06 01:51:23;;;;;;;4.03;3.63;;;;;;;;;;4969698;28;20208;-76
2022/07/06 01:53:49;;;;;;;4.37;3.40;;;;;;;;;;4968223;28;20200;-75
2022/07/06 01:56:14;;;;;;;5.70;3.20;;;;;;;;;;4969398;28;20183;-76
2022/07/06 01:58:40;;;;;;;3.30;3.00;;;;;;;;;;4996984;28;20186;-76
2022/07/06 02:01:12;;;;;;;3.40;2.97;;;;;;;;;;5008766;28;20217;-76
2022/07/06 02:03:37;;;;;;;3.43;3.13;;;;;;;;;;4968088;28;20232;-76
2022/07/06 02:06:03;;;;;;;3.13;2.93;;;;;;;;;;4970624;28;20173;-75
2022/07/06 02:08:28;;;;;;;3.67;3.37;;;;;;;;;;4969825;28;20189;-76
2022/07/06 02:10:53;;;;;;;3.50;3.20;;;;;;;;;;4969803;28;20185;-75
2022/07/06 02:13:19;;;;;;;3.43;3.10;;;;;;;;;;4972417;28;20188;-75
2022/07/06 02:15:44;;;;;;;4.23;3.53;;;;;;;;;;4971397;28;20247;-76
2022/07/06 02:18:09;;;;;;;4.40;3.50;;;;;;;;;;4971566;28;20233;-75
2022/07/06 02:20:34;;;;;;;3.60;3.30;;;;;;;;;;4981248;28;20172;-76
2022/07/06 02:23:00;;;;;;;4.83;3.90;;;;;;;;;;4971847;28;20181;-76
2022/07/06 02:25:25;;;;;;;4.23;3.83;;;;;;;;;;4973366;28;20185;-75
2022/07/06 02:27:50;;;;;;;4.23;3.70;;;;;;;;;;4973619;28;20241;-76
2022/07/06 02:30:15;;;;;;;5.67;3.63;;;;;;;;;;5005331;28;20187;-75
2022/07/06 02:32:41;;;;;;;4.83;4.40;;;;;;;;;;4971713;28;20212;-76
2022/07/06 02:35:06;;;;;;;6.17;4.80;;;;;;;;;;4972238;28;20202;-76
2022/07/06 02:37:31;;;;;;;5.17;4.07;;;;;;;;;;4971268;28;20223;-76
2022/07/06 02:39:57;;;;;;;5.03;4.63;;;;;;;;;;4975320;28;20208;-75
2022/07/06 02:42:22;;;;;;;5.40;5.00;;;;;;;;;;4971780;28;20215;-75
2022/07/06 02:44:47;;;;;;;5.77;5.00;;;;;;;;;;4971362;28;20185;-75
2022/07/06 02:47:12;;;;;;;6.80;5.30;;;;;;;;;;5004052;28;20459;-75
2022/07/06 02:49:37;;;;;;;5.63;5.13;;;;;;;;;;4972556;28;20188;-75
2022/07/06 02:52:03;;;;;;;6.90;5.43;;;;;;;;;;4973960;28;20246;-76
2022/07/06 02:54:28;;;;;;;5.70;5.10;;;;;;;;;;4973166;28;20199;-75
2022/07/06 02:56:53;;;;;;;5.87;5.37;;;;;;;;;;4972873;28;20207;-75
2022/07/06 02:59:19;;;;;;;5.63;5.23;;;;;;;;;;4971705;28;20180;-75
2022/07/06 03:01:45;;;;;;;6.23;5.57;;;;;;;;;;4970953;28;20188;-76
2022/07/06 03:04:10;;;;;;;7.13;5.50;;;;;;;;;;4971216;28;20185;-75
2022/07/06 03:06:35;;;;;;;5.63;5.13;;;;;;;;;;4973685;28;20183;-75
2022/07/06 03:09:01;;;;;;;7.10;5.73;;;;;;;;;;4969581;28;20193;-76
2022/07/06 03:11:27;;;;;;;6.87;6.10;;;;;;;;;;5001847;28;20463;-75
2022/07/06 03:13:52;;;;;;;6.27;5.37;;;;;;;;;;4971629;28;20325;-75
2022/07/06 03:16:17;;;;;;;6.93;5.90;;;;;;;;;;5003600;28;20213;-76
2022/07/06 03:18:42;;;;;;;6.30;5.60;;;;;;;;;;4971878;28;20283;-75
2022/07/06 03:21:08;;;;;;;6.00;5.50;;;;;;;;;;4969884;28;20182;-75
2022/07/06 03:23:33;;;;;;;7.00;6.40;;;;;;;;;;4972045;28;20211;-75
2022/07/06 03:25:58;;;;;;;7.27;6.63;;;;;;;;;;4969988;28;20176;-75
2022/07/06 03:28:23;;;;;;;6.37;5.47;;;;;;;;;;4970846;28;20191;-76
2022/07/06 03:30:48;;;;;;;8.57;5.87;;;;;;;;;;5007251;28;20195;-75
2022/07/06 03:33:14;;;;;;;8.20;6.03;;;;;;;;;;4971719;28;20183;-76
2022/07/06 03:35:39;;;;;;;9.53;7.47;;;;;;;;;;4970598;28;20187;-75
2022/07/06 03:38:04;;;;;;;7.47;6.47;;;;;;;;;;4977568;28;20217;-75
2022/07/06 03:40:48;;;;;;;9.90;6.30;;;;;;;;;;4969939;28;20208;-75
2022/07/06 03:43:13;;;;;;;7.27;6.50;;;;;;;;;;4984759;28;20193;-75
2022/07/06 03:45:38;;;;;;;7.50;6.73;;;;;;;;;;4972208;28;20182;-75
2022/07/06 03:48:04;;;;;;;7.73;6.23;;;;;;;;;;4971281;28;20183;-76
2022/07/06 03:50:29;;;;;;;6.10;5.57;;;;;;;;;;4973338;28;20198;-75
2022/07/06 03:57:56;;;;;;;7.30;6.70;;;;;;;;;;4990255;28;20276;-78
2022/07/06 04:00:22;;;;;;;6.60;6.10;;;;;;;;;;4991425;28;20248;-78
2022/07/06 04:02:47;;;;;;;7.53;6.47;;;;;;;;;;4991225;28;20178;-78
2022/07/06 04:05:12;;;;;;;7.73;6.83;;;;;;;;;;4990707;28;20197;-78
2022/07/06 04:07:37;;;;;;;7.70;6.60;;;;;;;;;;4994528;28;20191;-78
2022/07/06 04:10:03;;;;;;;8.67;7.07;;;;;;;;;;4989389;28;20191;-78
2022/07/06 04:12:28;;;;;;;7.50;6.33;;;;;;;;;;4989154;28;20205;-78
2022/07/06 04:14:55;;;;;;;8.03;6.97;;;;;;;;;;4988009;28;20185;-78
2022/07/06 04:20:05;;;;;;;7.73;5.70;;;;;;;;;;4989484;28;20227;-78
2022/07/06 04:22:30;;;;;;;5.70;5.20;;;;;;;;;;4993509;28;20174;-78
2022/07/06 04:24:55;;;;;;;6.40;5.80;;;;;;;;;;4993999;28;20189;-78
2022/07/06 04:27:20;;;;;;;6.33;5.40;;;;;;;;;;4998995;28;20192;-78
2022/07/06 04:29:46;;;;;;;6.53;5.97;;;;;;;;;;4992742;28;20325;-78
2022/07/06 04:32:11;;;;;;;11.60;6.33;;;;;;;;;;4989503;28;20201;-78
2022/07/06 04:34:36;;;;;;;5.40;4.97;;;;;;;;;;4993981;28;20510;-78
2022/07/06 04:37:02;;;;;;;6.43;5.93;;;;;;;;;;4988823;28;20209;-78
2022/07/06 04:39:27;;;;;;;5.70;5.20;;;;;;;;;;4989189;28;20245;-78
2022/07/06 04:41:53;;;;;;;6.43;5.47;;;;;;;;;;4989028;28;20182;-78
2022/07/06 04:44:18;;;;;;;7.90;5.93;;;;;;;;;;4986461;28;20209;-78
2022/07/06 04:46:43;;;;;;;6.93;6.30;;;;;;;;;;4983998;28;20233;-78
2022/07/06 04:49:08;;;;;;;7.67;5.67;;;;;;;;;;4991046;28;20191;-78
2022/07/06 04:51:34;;;;;;;6.87;5.70;;;;;;;;;;4989553;28;20191;-85
2022/07/06 04:54:01;;;;;;;5.93;5.37;;;;;;;;;;4973145;28;20191;-78
2022/07/06 04:56:26;;;;;;;5.43;4.90;;;;;;;;;;4990897;28;20218;-78
2022/07/06 04:58:52;;;;;;;5.33;4.90;;;;;;;;;;4995420;28;20209;-78
2022/07/06 05:01:17;;;;;;;5.50;4.90;;;;;;;;;;4990888;28;20266;-78
2022/07/06 05:03:42;;;;;;;4.97;4.47;;;;;;;;;;4989636;28;20183;-78
2022/07/06 05:06:07;;;;;;;5.10;4.60;;;;;;;;;;4991129;28;20179;-78
2022/07/06 05:08:33;;;;;;;5.50;5.00;;;;;;;;;;4983261;28;20183;-78
2022/07/06 05:11:00;;;;;;;5.43;5.03;;;;;;;;;;4987202;28;20185;-78
2022/07/06 05:13:25;;;;;;;5.50;5.00;;;;;;;;;;4988462;28;20201;-78
2022/07/06 05:15:51;;;;;;;5.33;4.60;;;;;;;;;;4991758;28;20194;-79
2022/07/06 05:18:16;;;;;;;5.23;4.73;;;;;;;;;;4981854;28;20211;-78
2022/07/06 05:20:41;;;;;;;5.77;4.97;;;;;;;;;;4991189;28;20193;-78
2022/07/06 05:23:09;;;;;;;4.70;4.30;;;;;;;;;;4987661;28;20190;-78
2022/07/06 05:25:35;;;;;;;6.40;4.93;;;;;;;;;;4987614;28;20220;-78
2022/07/06 05:28:00;;;;;;;5.40;4.10;;;;;;;;;;4986782;28;20229;-78
2022/07/06 05:30:26;;;;;;;4.97;4.47;;;;;;;;;;4993727;28;20480;-79
2022/07/06 05:32:51;;;;;;;4.03;3.73;;;;;;;;;;4988520;28;20191;-79
2022/07/06 05:35:16;;;;;;;4.80;4.40;;;;;;;;;;4989335;28;20186;-78
2022/07/06 05:37:42;;;;;;;4.20;3.90;;;;;;;;;;4988827;28;20211;-78
2022/07/06 05:40:07;;;;;;;5.90;3.70;;;;;;;;;;4986787;28;20180;-78
2022/07/06 05:42:32;;;;;;;6.87;4.23;;;;;;;;;;4987978;28;20184;-78
2022/07/06 05:44:58;;;;;;;5.70;4.23;;;;;;;;;;4989406;28;20183;-78
2022/07/06 05:50:13;;;;;;;8.27;4.40;;;;;;;;;;4993595;28;20193;-78
2022/07/06 05:52:39;;;;;;;4.77;4.13;;;;;;;;;;4989693;28;20229;-78
2022/07/06 05:55:04;;;;;;;4.57;4.20;;;;;;;;;;4995198;28;20215;-78
2022/07/06 05:57:29;;;;;;;4.70;4.17;;;;;;;;;;4994087;28;20234;-78
2022/07/06 05:59:55;;;;;;;4.17;3.87;;;;;;;;;;4993361;28;20184;-78
2022/07/06 06:02:20;;;;;;;5.10;4.07;;;;;;;;;;4993946;28;20367;-78
2022/07/06 06:04:45;;;;;;;6.93;4.30;;;;;;;;;;4993063;28;20185;-78
2022/07/06 06:07:10;;;;;;;4.73;4.33;;;;;;;;;;4996831;28;20193;-78
2022/07/06 06:09:35;;;;;;;4.10;3.80;;;;;;;;;;4993494;28;20200;-78
2022/07/06 06:12:01;;;;;;;6.73;5.03;;;;;;;;;;4993108;28;20354;-78
2022/07/06 06:14:26;;;;;;;4.63;4.20;;;;;;;;;;4988871;28;20260;-78
2022/07/06 06:16:51;;;;;;;4.70;4.30;;;;;;;;;;4994488;28;20289;-79
2022/07/06 06:19:16;;;;;;;7.63;4.10;;;;;;;;;;4992998;28;20330;-78
2022/07/06 06:21:42;;;;;;;5.60;3.57;;;;;;;;;;5008758;28;20189;-78
2022/07/06 06:24:07;;;;;;;4.20;3.50;;;;;;;;;;4988173;28;20230;-78
2022/07/06 06:26:32;;;;;;;5.17;4.37;;;;;;;;;;5009261;28;20172;-79
2022/07/06 06:28:57;;;;;;;4.10;3.80;;;;;;;;;;4991658;28;20730;-78
2022/07/06 06:31:22;;;;;;;4.17;3.40;;;;;;;;;;5005751;28;20176;-78
2022/07/06 06:33:48;;;;;;;4.33;4.03;;;;;;;;;;4993118;28;20179;-78
2022/07/06 06:36:13;;;;;;;4.70;4.00;;;;;;;;;;4992645;28;20173;-78
2022/07/06 06:38:38;;;;;;;4.77;3.80;;;;;;;;;;4993199;28;20479;-78
2022/07/06 06:41:04;;;;;;;4.37;3.97;;;;;;;;;;4992999;28;20191;-78
2022/07/06 06:43:29;;;;;;;4.47;4.17;;;;;;;;;;4990869;28;20696;-78
2022/07/06 06:45:54;;;;;;;4.10;3.70;;;;;;;;;;4999640;28;20184;-79
2022/07/06 06:48:19;;;;;;;5.27;4.20;;;;;;;;;;4997230;28;20184;-78
2022/07/06 06:50:45;;;;;;;6.27;4.67;;;;;;;;;;4990619;28;20185;-78
2022/07/06 06:53:10;;;;;;;4.67;4.07;;;;;;;;;;4994857;28;20232;-78
2022/07/06 06:55:36;;;;;;;4.67;4.27;;;;;;;;;;4990845;28;20188;-78
2022/07/06 06:58:01;;;;;;;5.70;4.33;;;;;;;;;;4990060;28;20218;-78
2022/07/06 07:00:26;;;;;;;6.10;4.23;;;;;;;;;;4997562;28;20179;-79
2022/07/06 07:02:53;;;;;;;3.67;3.37;;;;;;;;;;4991456;28;20235;-78
2022/07/06 07:05:19;;;;;;;6.07;4.27;;;;;;;;;;4995846;28;20211;-78
2022/07/06 07:07:44;;;;;;;6.53;4.47;;;;;;;;;;4993237;28;20216;-78
2022/07/06 07:10:09;;;;;;;4.40;3.93;;;;;;;;;;4990987;28;20190;-79
2022/07/06 07:12:35;;;;;;;5.00;4.03;;;;;;;;;;4984268;28;20193;-79
2022/07/06 07:15:00;;;;;;;7.33;4.33;;;;;;;;;;4998004;28;20195;-80
2022/07/06 07:17:26;;;;;;;4.20;3.70;;;;;;;;;;4997133;28;20259;-80
2022/07/06 07:19:51;;;;;;;4.80;4.40;;;;;;;;;;4992185;28;20172;-79
2022/07/06 07:22:16;;;;;;;5.40;4.40;;;;;;;;;;4989587;28;20193;-79
2022/07/06 07:24:41;;;;;;;3.93;3.57;;;;;;;;;;4994181;28;20177;-80
2022/07/06 07:27:07;;;;;;;4.00;3.60;;;;;;;;;;4995628;28;20228;-80
2022/07/06 07:29:32;;;;;;;4.10;3.27;;;;;;;;;;4995043;28;20284;-80
2022/07/06 07:31:57;;;;;;;4.40;4.07;;;;;;;;;;4995657;28;20185;-79
2022/07/06 07:34:22;;;;;;;5.40;3.77;;;;;;;;;;4993136;28;20282;-79
2022/07/06 07:36:48;;;;;;;4.80;3.80;;;;;;;;;;4990288;28;20195;-79
2022/07/06 07:39:13;;;;;;;4.50;3.87;;;;;;;;;;4998217;28;20225;-80
2022/07/06 07:41:39;;;;;;;4.40;4.00;;;;;;;;;;4991132;28;20176;-80
2022/07/06 07:44:04;;;;;;;4.30;3.90;;;;;;;;;;4988094;28;20596;-80
2022/07/06 07:46:29;;;;;;;4.30;3.90;;;;;;;;;;4995349;28;20257;-80
2022/07/06 07:48:55;;;;;;;4.33;3.90;;;;;;;;;;4991466;28;20193;-80
2022/07/06 07:51:20;;;;;;;5.60;4.63;;;;;;;;;;4994559;28;20175;-80
2022/07/06 07:53:45;;;;;;;4.23;3.13;;;;;;;;;;4991878;28;20213;-79
2022/07/06 07:56:11;;;;;;;4.60;3.70;;;;;;;;;;4991895;28;20311;-80
2022/07/06 07:58:36;;;;;;;4.00;3.60;;;;;;;;;;4991067;28;20282;-79
2022/07/06 08:01:01;;;;;;;4.33;3.53;;;;;;;;;;4990630;28;20188;-80
2022/07/06 08:03:26;;;;;;;4.77;3.90;;;;;;;;;;4996420;28;20179;-80
2022/07/06 08:05:52;;;;;;;5.67;3.73;;;;;;;;;;5007170;28;20218;-80
2022/07/06 08:08:18;;;;;;;4.97;3.93;;;;;;;;;;4992795;28;20211;-81
2022/07/06 08:10:44;;;;;;;4.03;3.73;;;;;;;;;;4990447;28;20179;-79
2022/07/06 08:13:10;;;;;;;3.90;3.60;;;;;;;;;;4988161;28;20184;-80
2022/07/06 08:15:36;;;;;;;5.43;3.50;;;;;;;;;;4988998;28;20197;-80
2022/07/06 08:18:01;;;;;;;3.93;3.63;;;;;;;;;;4991958;28;20204;-80
2022/07/06 08:20:26;;;;;;;4.43;4.10;;;;;;;;;;4992361;28;20226;-80
2022/07/06 08:22:52;;;;;;;5.17;4.47;;;;;;;;;;4992201;28;20322;-80
2022/07/06 08:25:19;;;;;;;6.20;4.10;;;;;;;;;;4994324;28;20180;-80
2022/07/06 08:27:45;;;;;;;5.50;5.10;;;;;;;;;;4989911;28;20189;-80
2022/07/06 08:30:10;;;;;;;7.50;4.90;;;;;;;;;;4989558;28;20198;-80
2022/07/06 08:32:42;;;;;;;4.23;3.70;;;;;;;;;;4990158;28;20197;-80
2022/07/06 08:35:08;;;;;;;5.93;4.40;;;;;;;;;;4988973;28;20179;-79
2022/07/06 08:37:33;;;;;;;4.60;4.30;;;;;;;;;;4991648;28;20209;-80
2022/07/06 08:39:58;;;;;;;4.83;4.27;;;;;;;;;;4990740;28;20181;-81
2022/07/06 08:42:29;;;;;;;4.43;3.93;;;;;;;;;;4990420;28;20186;-80
2022/07/06 08:44:54;;;;;;;5.03;4.40;;;;;;;;;;4992429;28;20189;-80
2022/07/06 08:47:20;;;;;;;5.43;4.00;;;;;;;;;;4992676;28;20181;-80
2022/07/06 08:49:45;;;;;;;4.40;4.00;;;;;;;;;;4992638;28;20233;-80
2022/07/06 08:52:11;;;;;;;4.97;4.57;;;;;;;;;;4990076;28;20187;-80
2022/07/06 08:54:38;;;;;;;5.07;4.53;;;;;;;;;;4994111;28;20183;-80
2022/07/06 08:57:03;;;;;;;4.30;4.00;;;;;;;;;;4995580;28;20619;-80
2022/07/06 08:59:29;;;;;;;4.10;3.80;;;;;;;;;;4992402;28;20192;-80
2022/07/06 09:01:55;;;;;;;4.90;4.50;;;;;;;;;;4993361;28;20185;-80
2022/07/06 09:04:21;;;;;;;5.10;4.60;;;;;;;;;;4991157;28;20254;-80
2022/07/06 09:06:49;;;;;;;4.43;4.03;;;;;;;;;;4991385;28;20187;-80
2022/07/06 09:09:18;;;;;;;5.87;4.90;;;;;;;;;;4989008;28;20175;-80
2022/07/06 09:11:43;;;;;;;6.67;4.07;;;;;;;;;;4990426;28;20190;-81
2022/07/06 09:14:09;;;;;;;4.00;3.70;;;;;;;;;;4989748;28;20183;-80
2022/07/06 09:16:35;;;;;;;5.67;4.47;;;;;;;;;;4994197;28;20193;-80
2022/07/06 09:19:00;;;;;;;5.10;4.60;;;;;;;;;;4989809;28;20176;-80
2022/07/06 09:21:27;;;;;;;7.13;4.00;;;;;;;;;;4990068;28;20198;-80
2022/07/06 09:23:53;;;;;;;5.53;4.60;;;;;;;;;;4993413;28;20179;-80
2022/07/06 09:26:18;;;;;;;5.00;3.60;;;;;;;;;;4995129;28;20191;-79
2022/07/06 09:28:44;;;;;;;5.90;3.80;;;;;;;;;;4993156;28;20175;-77
2022/07/06 09:31:09;;;;;;;7.37;4.60;;;;;;;;;;5239281;22;20313;-76
2022/07/06 09:33:35;;;;;;;4.53;4.13;;;;;;;;;;4995223;28;20227;-77
2022/07/06 09:36:01;;;;;;;5.13;4.73;;;;;;;;;;4994074;28;20211;-77
2022/07/06 09:38:27;;;;;;;4.30;3.73;;;;;;;;;;4994448;28;20200;-77
2022/07/06 09:40:52;;;;;;;6.90;4.17;;;;;;;;;;4992973;28;20174;-76
2022/07/06 09:43:18;;;;;;;4.67;4.17;;;;;;;;;;4989849;28;21588;-77
2022/07/06 09:45:54;;;;;;;4.63;4.23;;;;;;;;;;5000062;28;20182;-77
2022/07/06 09:48:23;;;;;;;4.87;4.33;;;;;;;;;;4992342;28;20202;-76
2022/07/06 09:50:50;;;;;;;4.93;4.47;;;;;;;;;;4991375;28;20172;-77
2022/07/06 09:53:15;;;;;;;6.23;5.23;;;;;;;;;;4993593;28;20191;-77
2022/07/06 09:55:45;;;;;;;4.40;4.00;;;;;;;;;;4991537;28;20212;-76
2022/07/06 09:58:10;;;;;;;5.17;3.37;;;;;;;;;;4990950;28;20242;-77
2022/07/06 10:00:35;;;;;;;4.67;4.17;;;;;;;;;;5001380;28;20206;-77
2022/07/06 10:03:01;;;;;;;8.13;4.63;;;;;;;;;;4996440;28;20184;-77
2022/07/06 10:05:29;;;;;;;5.30;4.60;;;;;;;;;;4994084;28;20182;-77
2022/07/06 10:07:56;;;;;;;4.27;3.80;;;;;;;;;;4993207;28;20177;-77
2022/07/06 10:10:23;;;;;;;4.53;4.20;;;;;;;;;;4997087;28;20195;-77
2022/07/06 10:12:49;;;;;;;4.17;3.77;;;;;;;;;;4992576;28;20270;-77
2022/07/06 10:15:16;;;;;;;4.93;4.43;;;;;;;;;;4994210;28;20187;-77
2022/07/06 10:17:42;;;;;;;5.60;5.20;;;;;;;;;;4992811;28;20267;-78
2022/07/06 10:20:07;;;;;;;5.20;3.90;;;;;;;;;;4997840;28;20181;-77
2022/07/06 10:22:34;;;;;;;3.50;3.27;;;;;;;;;;4992462;28;20188;-77
2022/07/06 10:25:00;;;;;;;5.13;4.50;;;;;;;;;;4996141;28;20172;-77
2022/07/06 10:27:26;;;;;;;5.83;4.10;;;;;;;;;;4988583;28;20197;-77
2022/07/06 10:29:51;;;;;;;4.47;3.60;;;;;;;;;;4994088;28;20186;-77
2022/07/06 10:32:23;;;;;;;4.53;3.30;;;;;;;;;;4993230;28;20346;-77
2022/07/06 10:34:48;;;;;;;4.03;3.60;;;;;;;;;;4991816;28;20191;-77
2022/07/06 10:37:24;;;;;;;5.23;3.90;;;;;;;;;;4994381;28;20278;-77
2022/07/06 10:42:51;;;;;;;14.30;5.00;;;;;;;;;;4997221;28;20196;-78
2022/07/06 10:45:29;;;;;;;4.67;4.07;;;;;;;;;;4992409;28;20181;-77
2022/07/06 10:48:12;;;;;;;8.10;4.27;;;;;;;;;;4994119;28;20174;-78
2022/07/06 10:50:56;;;;;;;5.83;4.50;;;;;;;;;;4995844;28;20184;-77
2022/07/06 10:53:25;;;;;;;6.97;4.27;;;;;;;;;;5008316;28;20182;-77
2022/07/06 10:55:52;;;;;;;5.10;3.70;;;;;;;;;;4990114;28;20206;-77
2022/07/06 10:58:39;;;;;;;6.63;3.83;;;;;;;;;;4991429;28;20217;-76
2022/07/06 11:01:05;;;;;;;5.53;4.10;;;;;;;;;;4982375;28;20181;-77
2022/07/06 11:03:31;;;;;;;5.53;4.03;;;;;;;;;;4992939;28;20187;-76
2022/07/06 11:06:01;;;;;;;3.73;3.43;;;;;;;;;;4992235;28;20214;-77
2022/07/06 11:08:45;;;;;;;7.03;4.37;;;;;;;;;;4993689;28;20197;-77
2022/07/06 11:11:12;;;;;;;5.50;4.93;;;;;;;;;;5010156;28;20221;-77
2022/07/06 11:13:47;;;;;;;6.57;5.43;;;;;;;;;;4997397;28;20187;-77
2022/07/06 11:16:13;;;;;;;6.07;4.37;;;;;;;;;;5005089;28;20247;-78
2022/07/06 11:18:38;;;;;;;5.20;3.77;;;;;;;;;;4995034;28;20318;-77
2022/07/06 11:21:14;;;;;;;5.63;4.40;;;;;;;;;;4992084;28;20184;-77
2022/07/06 11:23:39;;;;;;;4.63;3.57;;;;;;;;;;4988394;28;20195;-77
2022/07/06 11:26:05;;;;;;;11.87;4.40;;;;;;;;;;4990145;28;20183;-77
2022/07/06 11:28:30;;;;;;;4.57;4.17;;;;;;;;;;4990731;28;20187;-76
2022/07/06 11:30:55;;;;;;;5.10;3.77;;;;;;;;;;4989680;28;20223;-76
2022/07/06 11:33:30;;;;;;;4.20;3.75;;;;;;;;;;4990693;28;20176;-76
2022/07/06 11:36:15;;;;;;;4.53;3.40;;;;;;;;;;4990782;28;20518;-77
2022/07/06 11:38:41;;;;;;;7.20;4.80;;;;;;;;;;4989089;28;20222;-77
2022/07/06 11:41:06;;;;;;;4.00;3.70;;;;;;;;;;4978305;28;20192;-77
2022/07/06 11:43:31;;;;;;;4.77;3.60;;;;;;;;;;4989583;28;20194;-77
2022/07/06 11:45:57;;;;;;;6.13;3.20;;;;;;;;;;4989654;28;20178;-77
2022/07/06 11:48:22;;;;;;;4.23;3.13;;;;;;;;;;4990660;28;20215;-77
2022/07/06 11:50:57;;;;;;;4.13;3.70;;;;;;;;;;4992234;28;20182;-77
2022/07/06 11:53:23;;;;;;;3.65;3.35;;;;;;;;;;4988969;28;20183;-76
2022/07/06 11:55:48;;;;;;;3.67;3.20;;;;;;;;;;4990622;28;20208;-76
2022/07/06 11:58:14;;;;;;;4.60;3.83;;;;;;;;;;4991689;28;20210;-77
2022/07/06 12:00:39;;;;;;;4.77;3.90;;;;;;;;;;4990653;28;20180;-77
2022/07/06 12:03:04;;;;;;;5.87;3.40;;;;;;;;;;4993250;28;20172;-77
2022/07/06 12:05:30;;;;;;;7.10;3.58;;;;;;;;;;4990435;28;20280;-77
2022/07/06 12:08:08;;;;;;;3.88;3.42;;;;;;;;;;4990949;28;20172;-77
2022/07/06 12:10:35;;;;;;;3.50;3.20;;;;;;;;;;4985997;28;20188;-77
2022/07/06 12:13:04;;;;;;;4.43;3.60;;;;;;;;;;4991482;28;20203;-76
2022/07/06 12:15:29;;;;;;;3.08;2.88;;;;;;;;;;4987886;28;20180;-76
2022/07/06 12:17:54;;;;;;;3.58;3.15;;;;;;;;;;4991834;28;20212;-77
2022/07/06 12:20:20;;;;;;;3.33;3.03;;;;;;;;;;4991414;28;20202;-77
2022/07/06 12:22:45;;;;;;;6.00;3.22;;;;;;;;;;4989342;28;20312;-77
2022/07/06 12:25:10;;;;;;;3.60;3.30;;;;;;;;;;4988728;28;20191;-77
2022/07/06 12:27:35;;;;;;;4.13;3.10;;;;;;;;;;4992144;28;20184;-77
2022/07/06 12:30:10;;;;;;;5.70;3.80;;;;;;;;;;5005363;28;20180;-77
2022/07/06 12:32:36;;;;;;;5.35;3.33;;;;;;;;;;4983370;28;21583;-77
2022/07/06 12:35:04;;;;;;;3.85;3.10;;;;;;;;;;4990616;28;20172;-77
2022/07/06 12:37:30;;;;;;;4.10;3.10;;;;;;;;;;4989309;28;20263;-77
2022/07/06 12:39:55;;;;;;;4.15;3.63;;;;;;;;;;4988734;28;20195;-77
2022/07/06 12:42:20;;;;;;;3.30;3.00;;;;;;;;;;4987991;28;20527;-76
2022/07/06 12:44:52;;;;;;;2.80;2.60;;;;;;;;;;4993092;28;20182;-77
2022/07/06 12:47:23;;;;;;;2.95;2.55;;;;;;;;;;4987811;28;20195;-77
2022/07/06 12:49:49;;;;;;;2.97;2.60;;;;;;;;;;4989754;28;20207;-77
2022/07/06 12:52:17;;;;;;;4.10;2.42;;;;;;;;;;4984034;28;20185;-77
2022/07/06 12:54:42;;;;;;;2.78;2.58;;;;;;;;;;4989533;28;20191;-77
2022/07/06 12:57:08;;;;;;;3.70;3.00;;;;;;;;;;4986513;28;20203;-77
2022/07/06 12:59:34;;;;;;;3.13;2.83;;;;;;;;;;4998539;28;20187;-77
2022/07/06 13:02:00;;;;;;;2.90;2.70;;;;;;;;;;4987597;28;20180;-77
2022/07/06 13:04:27;;;;;;;3.75;2.80;;;;;;;;;;4990452;28;20220;-77
2022/07/06 13:06:53;;;;;;;3.15;2.85;;;;;;;;;;4993260;28;20192;-77
2022/07/06 13:09:18;;;;;;;2.75;2.55;;;;;;;;;;5001651;28;20187;-77
2022/07/06 13:11:44;;;;;;;4.85;2.78;;;;;;;;;;4990003;28;20191;-77
2022/07/06 13:14:09;;;;;;;2.75;2.50;;;;;;;;;;4988378;28;20256;-76
2022/07/06 13:16:35;;;;;;;4.15;2.67;;;;;;;;;;4993214;28;20183;-76
2022/07/06 13:19:00;;;;;;;3.78;2.88;;;;;;;;;;4991226;28;20186;-76
2022/07/06 13:21:26;;;;;;;3.45;3.00;;;;;;;;;;4990478;28;20180;-77
2022/07/06 13:23:51;;;;;;;2.58;2.38;;;;;;;;;;4988936;28;20215;-77
2022/07/06 13:26:16;;;;;;;4.00;3.10;;;;;;;;;;4991090;28;20283;-77
2022/07/06 13:28:41;;;;;;;2.78;2.53;;;;;;;;;;4988917;28;20172;-76
2022/07/06 13:31:07;;;;;;;5.45;2.65;;;;;;;;;;4991672;28;20277;-76
2022/07/06 13:33:32;;;;;;;4.03;3.20;;;;;;;;;;4995366;28;20188;-77
2022/07/06 13:35:57;;;;;;;3.90;2.95;;;;;;;;;;4993745;28;20192;-76
2022/07/06 13:38:23;;;;;;;4.75;2.50;;;;;;;;;;4988262;28;20231;-76
2022/07/06 13:40:48;;;;;;;4.75;2.80;;;;;;;;;;4986482;28;20180;-77
2022/07/06 13:43:13;;;;;;;3.55;3.03;;;;;;;;;;4991283;28;20374;-77
2022/07/06 13:45:38;;;;;;;5.28;2.90;;;;;;;;;;4996730;28;20184;-77
2022/07/06 13:48:03;;;;;;;3.00;2.70;;;;;;;;;;4987694;28;20188;-77
2022/07/06 13:50:32;;;;;;;2.80;2.60;;;;;;;;;;4989204;28;20180;-77
2022/07/06 13:52:57;;;;;;;3.10;2.72;;;;;;;;;;4989844;28;20258;-76
2022/07/06 13:55:22;;;;;;;2.63;2.42;;;;;;;;;;4989993;28;20403;-76
2022/07/06 13:57:48;;;;;;;4.45;2.65;;;;;;;;;;4988281;28;20212;-77
2022/07/06 14:00:14;;;;;;;3.75;2.40;;;;;;;;;;4981837;28;20177;-77
2022/07/06 14:02:39;;;;;;;2.65;2.53;;;;;;;;;;4986050;28;20206;-77
2022/07/06 14:05:05;;;;;;;2.65;2.45;;;;;;;;;;4993203;28;20243;-77
2022/07/06 14:07:30;;;;;;;2.83;2.63;;;;;;;;;;4991963;28;20184;-77
2022/07/06 14:09:55;;;;;;;3.70;2.35;;;;;;;;;;4993442;28;20186;-77
2022/07/06 14:12:23;;;;;;;3.00;2.70;;;;;;;;;;4992258;28;20184;-76
2022/07/06 14:14:48;;;;;;;2.85;2.65;;;;;;;;;;4992562;28;20255;-77
2022/07/06 14:17:13;;;;;;;3.30;3.00;;;;;;;;;;4993576;28;20291;-77
2022/07/06 14:19:39;;;;;;;4.35;2.90;;;;;;;;;;4993824;28;20176;-77
2022/07/06 14:22:04;;;;;;;3.03;2.50;;;;;;;;;;4999556;28;20176;-77
2022/07/06 14:24:29;;;;;;;2.78;2.25;;;;;;;;;;4996778;28;20173;-77
2022/07/06 14:26:54;;;;;;;3.35;2.60;;;;;;;;;;4993148;28;20251;-76
2022/07/06 14:29:20;;;;;;;3.97;2.90;;;;;;;;;;4993827;28;20247;-77
2022/07/06 14:31:47;;;;;;;2.38;2.15;;;;;;;;;;4990389;28;20256;-77
2022/07/06 14:34:12;;;;;;;2.22;2.03;;;;;;;;;;4995322;28;20179;-76
2022/07/06 14:36:38;;;;;;;2.85;2.63;;;;;;;;;;4988664;28;20184;-76
2022/07/06 14:39:04;;;;;;;2.30;2.10;;;;;;;;;;4993636;28;20184;-76
2022/07/06 14:41:29;;;;;;;3.63;2.67;;;;;;;;;;4992499;28;20206;-76
2022/07/06 14:43:54;;;;;;;2.42;2.25;;;;;;;;;;4992757;28;20183;-76
2022/07/06 14:46:20;;;;;;;2.30;2.10;;;;;;;;;;4993520;28;20176;-77
2022/07/06 14:48:45;;;;;;;2.35;2.15;;;;;;;;;;4993723;28;20271;-77
2022/07/06 14:51:10;;;;;;;3.20;2.20;;;;;;;;;;4993959;28;20184;-77